sensor_id;sensor_type;location;lat;lon;timestamp;P1;durP1;ratioP1;P2;durP2;ratioP2
68803;SDS011;55787;52.678;13.314;2022-11-18T00:01:08;23.25;;;8.88;;
68803;SDS011;55787;52.678;13.314;2022-11-18T00:03:36;25.65;;;9.45;;
68803;SDS011;55787;52.678;13.314;2022-11-18T00:06:03;20.70;;;7.27;;
68803;SDS011;55787;52.678;13.314;2022-11-18T00:08:32;22.75;;;8.85;;
68803;SDS011;55787;52.678;13.314;2022-11-18T00:10:58;25.67;;;10.32;;
68803;SDS011;55787;52.678;13.314;2022-11-18T00:13:34;28.83;;;10.25;;
68803;SDS011;55787;52.678;13.314;2022-11-18T00:16:19;25.40;;;8.25;;
68803;SDS011;55787;52.678;13.314;2022-11-18T00:18:46;29.17;;;10.27;;
68803;SDS011;55787;52.678;13.314;2022-11-18T00:21:12;26.23;;;9.60;;
68803;SDS011;55787;52.678;13.314;2022-11-18T00:23:39;26.67;;;10.40;;
68803;SDS011;55787;52.678;13.314;2022-11-18T00:26:07;26.35;;;9.65;;
68803;SDS011;55787;52.678;13.314;2022-11-18T00:28:36;29.38;;;10.80;;
68803;SDS011;55787;52.678;13.314;2022-11-18T00:31:05;26.67;;;9.93;;
68803;SDS011;55787;52.678;13.314;2022-11-18T00:33:37;25.77;;;9.27;;
68803;SDS011;55787;52.678;13.314;2022-11-18T00:36:05;26.73;;;9.82;;
68803;SDS011;55787;52.678;13.314;2022-11-18T00:38:33;25.67;;;9.48;;
68803;SDS011;55787;52.678;13.314;2022-11-18T00:41:03;28.42;;;10.07;;
68803;SDS011;55787;52.678;13.314;2022-11-18T00:43:32;22.43;;;7.73;;
68803;SDS011;55787;52.678;13.314;2022-11-18T00:46:00;26.33;;;9.00;;
68803;SDS011;55787;52.678;13.314;2022-11-18T00:48:27;29.38;;;10.55;;
68803;SDS011;55787;52.678;13.314;2022-11-18T00:50:55;28.42;;;10.40;;
68803;SDS011;55787;52.678;13.314;2022-11-18T00:53:25;28.55;;;10.75;;
68803;SDS011;55787;52.678;13.314;2022-11-18T00:55:52;27.17;;;9.87;;
68803;SDS011;55787;52.678;13.314;2022-11-18T00:58:19;25.48;;;9.02;;
68803;SDS011;55787;52.678;13.314;2022-11-18T01:00:49;27.45;;;10.07;;
68803;SDS011;55787;52.678;13.314;2022-11-18T01:03:17;26.50;;;9.30;;
68803;SDS011;55787;52.678;13.314;2022-11-18T01:05:45;27.45;;;10.57;;
68803;SDS011;55787;52.678;13.314;2022-11-18T01:08:13;30.37;;;9.63;;
68803;SDS011;55787;52.678;13.314;2022-11-18T01:10:40;26.23;;;9.48;;
68803;SDS011;55787;52.678;13.314;2022-11-18T01:13:11;25.63;;;9.90;;
68803;SDS011;55787;52.678;13.314;2022-11-18T01:15:46;24.40;;;8.02;;
68803;SDS011;55787;52.678;13.314;2022-11-18T01:18:16;29.50;;;10.52;;
68803;SDS011;55787;52.678;13.314;2022-11-18T01:20:44;27.10;;;9.90;;
68803;SDS011;55787;52.678;13.314;2022-11-18T01:23:12;26.25;;;9.25;;
68803;SDS011;55787;52.678;13.314;2022-11-18T01:25:39;25.15;;;9.57;;
68803;SDS011;55787;52.678;13.314;2022-11-18T01:28:08;26.10;;;9.95;;
68803;SDS011;55787;52.678;13.314;2022-11-18T01:30:36;24.02;;;8.40;;
68803;SDS011;55787;52.678;13.314;2022-11-18T01:33:04;26.60;;;10.50;;
68803;SDS011;55787;52.678;13.314;2022-11-18T01:35:35;20.42;;;6.45;;
68803;SDS011;55787;52.678;13.314;2022-11-18T01:38:02;26.95;;;9.38;;
68803;SDS011;55787;52.678;13.314;2022-11-18T01:40:30;26.80;;;9.30;;
68803;SDS011;55787;52.678;13.314;2022-11-18T01:42:57;26.40;;;9.23;;
68803;SDS011;55787;52.678;13.314;2022-11-18T01:45:34;28.57;;;10.57;;
68803;SDS011;55787;52.678;13.314;2022-11-18T01:48:05;27.08;;;10.18;;
68803;SDS011;55787;52.678;13.314;2022-11-18T01:50:47;27.60;;;10.30;;
68803;SDS011;55787;52.678;13.314;2022-11-18T01:53:21;27.80;;;10.15;;
68803;SDS011;55787;52.678;13.314;2022-11-18T01:55:51;21.65;;;7.47;;
68803;SDS011;55787;52.678;13.314;2022-11-18T02:01:00;27.35;;;9.43;;
68803;SDS011;55787;52.678;13.314;2022-11-18T02:03:28;26.40;;;10.15;;
68803;SDS011;55787;52.678;13.314;2022-11-18T02:05:55;25.80;;;9.52;;
68803;SDS011;55787;52.678;13.314;2022-11-18T02:08:24;25.33;;;9.18;;
68803;SDS011;55787;52.678;13.314;2022-11-18T02:10:52;29.37;;;10.50;;
68803;SDS011;55787;52.678;13.314;2022-11-18T02:13:19;25.48;;;9.05;;
68803;SDS011;55787;52.678;13.314;2022-11-18T02:16:06;23.30;;;8.23;;
68803;SDS011;55787;52.678;13.314;2022-11-18T02:18:59;29.63;;;11.27;;
68803;SDS011;55787;52.678;13.314;2022-11-18T02:30:02;28.13;;;10.38;;
68803;SDS011;55787;52.678;13.314;2022-11-18T02:32:31;27.63;;;9.25;;
68803;SDS011;55787;52.678;13.314;2022-11-18T02:37:39;27.70;;;9.40;;
68803;SDS011;55787;52.678;13.314;2022-11-18T02:40:29;25.20;;;9.57;;
68803;SDS011;55787;52.678;13.314;2022-11-18T02:45:38;28.85;;;10.27;;
68803;SDS011;55787;52.678;13.314;2022-11-18T02:48:09;29.58;;;10.68;;
68803;SDS011;55787;52.678;13.314;2022-11-18T02:50:38;27.13;;;10.17;;
68803;SDS011;55787;52.678;13.314;2022-11-18T02:53:09;26.23;;;8.73;;
68803;SDS011;55787;52.678;13.314;2022-11-18T02:55:38;26.95;;;9.45;;
68803;SDS011;55787;52.678;13.314;2022-11-18T02:58:07;28.35;;;10.32;;
68803;SDS011;55787;52.678;13.314;2022-11-18T03:00:34;32.00;;;10.43;;
68803;SDS011;55787;52.678;13.314;2022-11-18T03:03:20;28.13;;;9.93;;
68803;SDS011;55787;52.678;13.314;2022-11-18T03:05:50;31.10;;;10.77;;
68803;SDS011;55787;52.678;13.314;2022-11-18T03:08:44;25.45;;;9.48;;
68803;SDS011;55787;52.678;13.314;2022-11-18T03:11:19;30.73;;;10.93;;
68803;SDS011;55787;52.678;13.314;2022-11-18T03:16:38;25.47;;;9.43;;
68803;SDS011;55787;52.678;13.314;2022-11-18T03:19:09;28.27;;;10.48;;
68803;SDS011;55787;52.678;13.314;2022-11-18T03:21:42;31.85;;;11.02;;
68803;SDS011;55787;52.678;13.314;2022-11-18T03:24:20;32.05;;;10.60;;
68803;SDS011;55787;52.678;13.314;2022-11-18T03:26:53;32.83;;;11.68;;
68803;SDS011;55787;52.678;13.314;2022-11-18T03:29:27;32.83;;;11.87;;
68803;SDS011;55787;52.678;13.314;2022-11-18T03:32:09;35.67;;;13.05;;
68803;SDS011;55787;52.678;13.314;2022-11-18T03:37:09;33.95;;;11.27;;
68803;SDS011;55787;52.678;13.314;2022-11-18T03:39:39;32.55;;;11.43;;
68803;SDS011;55787;52.678;13.314;2022-11-18T03:42:14;34.97;;;12.70;;
68803;SDS011;55787;52.678;13.314;2022-11-18T03:44:48;29.08;;;10.02;;
68803;SDS011;55787;52.678;13.314;2022-11-18T03:47:39;36.70;;;12.45;;
68803;SDS011;55787;52.678;13.314;2022-11-18T03:50:08;32.13;;;11.07;;
68803;SDS011;55787;52.678;13.314;2022-11-18T03:52:40;36.00;;;12.00;;
68803;SDS011;55787;52.678;13.314;2022-11-18T03:55:10;36.03;;;12.20;;
68803;SDS011;55787;52.678;13.314;2022-11-18T04:00:11;38.10;;;13.50;;
68803;SDS011;55787;52.678;13.314;2022-11-18T04:02:41;37.85;;;13.65;;
68803;SDS011;55787;52.678;13.314;2022-11-18T04:05:09;38.45;;;13.60;;
68803;SDS011;55787;52.678;13.314;2022-11-18T04:07:51;36.87;;;11.63;;
68803;SDS011;55787;52.678;13.314;2022-11-18T04:15:35;35.63;;;12.00;;
68803;SDS011;55787;52.678;13.314;2022-11-18T04:18:04;36.70;;;12.85;;
68803;SDS011;55787;52.678;13.314;2022-11-18T04:20:31;36.27;;;12.77;;
68803;SDS011;55787;52.678;13.314;2022-11-18T04:22:59;35.10;;;12.27;;
68803;SDS011;55787;52.678;13.314;2022-11-18T04:25:26;37.15;;;12.63;;
68803;SDS011;55787;52.678;13.314;2022-11-18T04:27:53;35.63;;;12.10;;
68803;SDS011;55787;52.678;13.314;2022-11-18T04:30:19;33.15;;;11.88;;
68803;SDS011;55787;52.678;13.314;2022-11-18T04:32:46;27.97;;;9.23;;
68803;SDS011;55787;52.678;13.314;2022-11-18T04:35:13;33.35;;;11.02;;
68803;SDS011;55787;52.678;13.314;2022-11-18T04:37:40;30.10;;;10.48;;
68803;SDS011;55787;52.678;13.314;2022-11-18T04:40:08;29.45;;;10.40;;
68803;SDS011;55787;52.678;13.314;2022-11-18T04:42:35;32.17;;;10.82;;
68803;SDS011;55787;52.678;13.314;2022-11-18T04:45:02;32.13;;;11.00;;
68803;SDS011;55787;52.678;13.314;2022-11-18T04:47:29;35.20;;;11.73;;
68803;SDS011;55787;52.678;13.314;2022-11-18T04:49:56;31.98;;;11.18;;
68803;SDS011;55787;52.678;13.314;2022-11-18T04:52:23;30.50;;;9.52;;
68803;SDS011;55787;52.678;13.314;2022-11-18T04:54:49;28.25;;;9.35;;
68803;SDS011;55787;52.678;13.314;2022-11-18T04:57:16;33.27;;;11.07;;
68803;SDS011;55787;52.678;13.314;2022-11-18T04:59:42;31.33;;;10.82;;
68803;SDS011;55787;52.678;13.314;2022-11-18T05:02:09;32.92;;;10.98;;
68803;SDS011;55787;52.678;13.314;2022-11-18T05:04:36;30.42;;;10.75;;
68803;SDS011;55787;52.678;13.314;2022-11-18T05:07:03;29.88;;;10.05;;
68803;SDS011;55787;52.678;13.314;2022-11-18T05:09:30;29.33;;;9.60;;
68803;SDS011;55787;52.678;13.314;2022-11-18T05:11:58;27.77;;;9.05;;
68803;SDS011;55787;52.678;13.314;2022-11-18T05:14:44;26.35;;;9.35;;
68803;SDS011;55787;52.678;13.314;2022-11-18T05:17:16;27.20;;;9.50;;
68803;SDS011;55787;52.678;13.314;2022-11-18T05:19:43;30.75;;;10.00;;
68803;SDS011;55787;52.678;13.314;2022-11-18T05:22:09;28.93;;;9.83;;
68803;SDS011;55787;52.678;13.314;2022-11-18T05:24:36;25.23;;;9.00;;
68803;SDS011;55787;52.678;13.314;2022-11-18T05:27:03;25.15;;;9.48;;
68803;SDS011;55787;52.678;13.314;2022-11-18T05:29:29;28.80;;;9.80;;
68803;SDS011;55787;52.678;13.314;2022-11-18T05:31:56;22.55;;;7.90;;
68803;SDS011;55787;52.678;13.314;2022-11-18T05:34:23;25.03;;;9.30;;
68803;SDS011;55787;52.678;13.314;2022-11-18T05:36:50;23.63;;;8.82;;
68803;SDS011;55787;52.678;13.314;2022-11-18T05:39:17;24.75;;;8.38;;
68803;SDS011;55787;52.678;13.314;2022-11-18T05:41:44;24.15;;;8.13;;
68803;SDS011;55787;52.678;13.314;2022-11-18T05:44:30;24.90;;;8.50;;
68803;SDS011;55787;52.678;13.314;2022-11-18T05:46:56;22.83;;;8.30;;
68803;SDS011;55787;52.678;13.314;2022-11-18T05:49:23;23.08;;;8.05;;
68803;SDS011;55787;52.678;13.314;2022-11-18T05:51:50;21.95;;;7.80;;
68803;SDS011;55787;52.678;13.314;2022-11-18T05:54:17;21.40;;;7.70;;
68803;SDS011;55787;52.678;13.314;2022-11-18T05:56:45;21.50;;;6.95;;
68803;SDS011;55787;52.678;13.314;2022-11-18T05:59:12;21.00;;;7.80;;
68803;SDS011;55787;52.678;13.314;2022-11-18T06:01:42;21.33;;;7.07;;
68803;SDS011;55787;52.678;13.314;2022-11-18T06:04:39;21.08;;;7.32;;
68803;SDS011;55787;52.678;13.314;2022-11-18T06:07:12;21.13;;;7.22;;
68803;SDS011;55787;52.678;13.314;2022-11-18T06:09:44;20.08;;;5.93;;
68803;SDS011;55787;52.678;13.314;2022-11-18T06:12:16;21.67;;;7.53;;
68803;SDS011;55787;52.678;13.314;2022-11-18T06:14:47;22.25;;;7.88;;
68803;SDS011;55787;52.678;13.314;2022-11-18T06:17:23;23.73;;;8.05;;
68803;SDS011;55787;52.678;13.314;2022-11-18T06:19:53;20.95;;;7.45;;
68803;SDS011;55787;52.678;13.314;2022-11-18T06:22:21;20.17;;;7.05;;
68803;SDS011;55787;52.678;13.314;2022-11-18T06:24:49;20.17;;;7.57;;
68803;SDS011;55787;52.678;13.314;2022-11-18T06:27:15;20.40;;;7.78;;
68803;SDS011;55787;52.678;13.314;2022-11-18T06:29:43;21.45;;;8.15;;
68803;SDS011;55787;52.678;13.314;2022-11-18T06:32:09;21.30;;;7.22;;
68803;SDS011;55787;52.678;13.314;2022-11-18T06:34:36;16.83;;;5.53;;
68803;SDS011;55787;52.678;13.314;2022-11-18T06:37:17;23.17;;;8.13;;
68803;SDS011;55787;52.678;13.314;2022-11-18T06:39:48;22.85;;;7.50;;
68803;SDS011;55787;52.678;13.314;2022-11-18T06:42:14;22.55;;;8.02;;
68803;SDS011;55787;52.678;13.314;2022-11-18T06:45:02;21.42;;;7.30;;
68803;SDS011;55787;52.678;13.314;2022-11-18T06:47:29;24.13;;;8.57;;
68803;SDS011;55787;52.678;13.314;2022-11-18T06:49:56;21.47;;;8.10;;
68803;SDS011;55787;52.678;13.314;2022-11-18T06:52:22;22.45;;;7.68;;
68803;SDS011;55787;52.678;13.314;2022-11-18T06:54:49;22.88;;;7.28;;
68803;SDS011;55787;52.678;13.314;2022-11-18T06:57:16;24.80;;;8.50;;
68803;SDS011;55787;52.678;13.314;2022-11-18T06:59:42;24.98;;;9.73;;
68803;SDS011;55787;52.678;13.314;2022-11-18T07:02:09;21.53;;;8.10;;
68803;SDS011;55787;52.678;13.314;2022-11-18T07:04:36;27.80;;;9.93;;
68803;SDS011;55787;52.678;13.314;2022-11-18T07:07:05;25.15;;;8.65;;
68803;SDS011;55787;52.678;13.314;2022-11-18T07:09:33;24.08;;;9.07;;
68803;SDS011;55787;52.678;13.314;2022-11-18T07:12:00;22.60;;;8.50;;
68803;SDS011;55787;52.678;13.314;2022-11-18T07:14:27;23.57;;;7.90;;
68803;SDS011;55787;52.678;13.314;2022-11-18T07:16:55;26.45;;;8.82;;
68803;SDS011;55787;52.678;13.314;2022-11-18T07:19:21;26.58;;;9.73;;
68803;SDS011;55787;52.678;13.314;2022-11-18T07:21:48;27.52;;;8.10;;
68803;SDS011;55787;52.678;13.314;2022-11-18T07:24:15;25.48;;;9.38;;
68803;SDS011;55787;52.678;13.314;2022-11-18T07:26:42;26.80;;;9.10;;
68803;SDS011;55787;52.678;13.314;2022-11-18T07:29:09;20.58;;;7.05;;
68803;SDS011;55787;52.678;13.314;2022-11-18T07:31:36;25.13;;;8.48;;
68803;SDS011;55787;52.678;13.314;2022-11-18T07:34:04;26.63;;;9.73;;
68803;SDS011;55787;52.678;13.314;2022-11-18T07:36:32;30.00;;;9.80;;
68803;SDS011;55787;52.678;13.314;2022-11-18T07:39:02;20.80;;;6.87;;
68803;SDS011;55787;52.678;13.314;2022-11-18T07:41:30;27.52;;;9.75;;
68803;SDS011;55787;52.678;13.314;2022-11-18T07:43:58;28.23;;;9.55;;
68803;SDS011;55787;52.678;13.314;2022-11-18T07:49:00;26.92;;;9.50;;
68803;SDS011;55787;52.678;13.314;2022-11-18T07:51:29;27.73;;;9.83;;
68803;SDS011;55787;52.678;13.314;2022-11-18T07:53:58;26.45;;;8.75;;
68803;SDS011;55787;52.678;13.314;2022-11-18T07:56:25;20.13;;;7.00;;
68803;SDS011;55787;52.678;13.314;2022-11-18T07:58:52;27.52;;;10.02;;
68803;SDS011;55787;52.678;13.314;2022-11-18T08:01:21;27.10;;;10.07;;
68803;SDS011;55787;52.678;13.314;2022-11-18T08:03:49;21.27;;;6.37;;
68803;SDS011;55787;52.678;13.314;2022-11-18T08:06:17;26.30;;;9.85;;
68803;SDS011;55787;52.678;13.314;2022-11-18T08:08:44;27.33;;;9.65;;
68803;SDS011;55787;52.678;13.314;2022-11-18T08:11:15;26.30;;;10.50;;
68803;SDS011;55787;52.678;13.314;2022-11-18T08:13:48;22.95;;;8.57;;
68803;SDS011;55787;52.678;13.314;2022-11-18T08:16:17;27.00;;;10.47;;
68803;SDS011;55787;52.678;13.314;2022-11-18T08:18:46;24.75;;;9.52;;
68803;SDS011;55787;52.678;13.314;2022-11-18T08:21:16;23.65;;;8.63;;
68803;SDS011;55787;52.678;13.314;2022-11-18T08:23:49;20.80;;;7.03;;
68803;SDS011;55787;52.678;13.314;2022-11-18T08:26:17;20.67;;;7.85;;
68803;SDS011;55787;52.678;13.314;2022-11-18T08:28:44;23.87;;;9.03;;
68803;SDS011;55787;52.678;13.314;2022-11-18T08:31:11;24.55;;;8.95;;
68803;SDS011;55787;52.678;13.314;2022-11-18T08:33:40;22.17;;;7.88;;
68803;SDS011;55787;52.678;13.314;2022-11-18T08:36:14;21.75;;;7.07;;
68803;SDS011;55787;52.678;13.314;2022-11-18T08:38:42;21.42;;;7.78;;
68803;SDS011;55787;52.678;13.314;2022-11-18T08:41:11;23.03;;;8.87;;
68803;SDS011;55787;52.678;13.314;2022-11-18T08:43:40;24.40;;;9.63;;
68803;SDS011;55787;52.678;13.314;2022-11-18T08:46:07;22.52;;;7.47;;
68803;SDS011;55787;52.678;13.314;2022-11-18T08:48:33;23.77;;;7.78;;
68803;SDS011;55787;52.678;13.314;2022-11-18T08:51:00;22.88;;;8.35;;
68803;SDS011;55787;52.678;13.314;2022-11-18T08:53:27;21.63;;;8.00;;
68803;SDS011;55787;52.678;13.314;2022-11-18T08:55:57;22.65;;;7.72;;
68803;SDS011;55787;52.678;13.314;2022-11-18T08:58:25;25.70;;;8.70;;
68803;SDS011;55787;52.678;13.314;2022-11-18T09:00:52;20.17;;;6.63;;
68803;SDS011;55787;52.678;13.314;2022-11-18T09:03:19;19.60;;;6.78;;
68803;SDS011;55787;52.678;13.314;2022-11-18T09:05:46;20.30;;;7.77;;
68803;SDS011;55787;52.678;13.314;2022-11-18T09:08:13;20.80;;;7.25;;
68803;SDS011;55787;52.678;13.314;2022-11-18T09:10:41;20.75;;;7.43;;
68803;SDS011;55787;52.678;13.314;2022-11-18T09:13:08;19.92;;;7.38;;
68803;SDS011;55787;52.678;13.314;2022-11-18T09:15:56;20.33;;;7.13;;
68803;SDS011;55787;52.678;13.314;2022-11-18T09:18:24;20.33;;;7.57;;
68803;SDS011;55787;52.678;13.314;2022-11-18T09:20:57;18.52;;;6.38;;
68803;SDS011;55787;52.678;13.314;2022-11-18T09:23:29;18.33;;;6.13;;
68803;SDS011;55787;52.678;13.314;2022-11-18T09:26:00;15.07;;;5.18;;
68803;SDS011;55787;52.678;13.314;2022-11-18T09:28:29;17.00;;;5.45;;
68803;SDS011;55787;52.678;13.314;2022-11-18T09:30:56;20.30;;;6.67;;
68803;SDS011;55787;52.678;13.314;2022-11-18T09:33:23;15.38;;;5.05;;
68803;SDS011;55787;52.678;13.314;2022-11-18T09:35:50;18.52;;;6.68;;
68803;SDS011;55787;52.678;13.314;2022-11-18T09:38:16;19.33;;;7.15;;
68803;SDS011;55787;52.678;13.314;2022-11-18T09:49:28;18.00;;;5.55;;
68803;SDS011;55787;52.678;13.314;2022-11-18T09:51:56;12.20;;;4.55;;
68803;SDS011;55787;52.678;13.314;2022-11-18T09:54:36;17.27;;;5.95;;
68803;SDS011;55787;52.678;13.314;2022-11-18T09:57:14;18.40;;;6.37;;
68803;SDS011;55787;52.678;13.314;2022-11-18T10:00:04;12.40;;;3.72;;
68803;SDS011;55787;52.678;13.314;2022-11-18T10:05:27;17.52;;;6.20;;
68803;SDS011;55787;52.678;13.314;2022-11-18T10:10:50;16.07;;;5.60;;
68803;SDS011;55787;52.678;13.314;2022-11-18T10:18:51;15.10;;;4.93;;
68803;SDS011;55787;52.678;13.314;2022-11-18T10:24:42;14.50;;;5.40;;
68803;SDS011;55787;52.678;13.314;2022-11-18T10:27:14;15.70;;;4.95;;
68803;SDS011;55787;52.678;13.314;2022-11-18T10:29:42;21.58;;;9.00;;
68803;SDS011;55787;52.678;13.314;2022-11-18T10:32:12;18.67;;;5.45;;
68803;SDS011;55787;52.678;13.314;2022-11-18T10:40:14;13.65;;;5.60;;
68803;SDS011;55787;52.678;13.314;2022-11-18T10:42:50;11.27;;;4.45;;
68803;SDS011;55787;52.678;13.314;2022-11-18T10:50:34;13.07;;;4.30;;
68803;SDS011;55787;52.678;13.314;2022-11-18T10:53:03;15.10;;;4.80;;
68803;SDS011;55787;52.678;13.314;2022-11-18T10:55:31;13.52;;;4.38;;
68803;SDS011;55787;52.678;13.314;2022-11-18T10:58:02;13.20;;;4.85;;
68803;SDS011;55787;52.678;13.314;2022-11-18T11:00:38;13.30;;;4.90;;
68803;SDS011;55787;52.678;13.314;2022-11-18T11:03:22;13.90;;;4.90;;
68803;SDS011;55787;52.678;13.314;2022-11-18T11:08:58;12.80;;;4.50;;
68803;SDS011;55787;52.678;13.314;2022-11-18T11:11:34;13.20;;;4.80;;
68803;SDS011;55787;52.678;13.314;2022-11-18T11:14:15;14.30;;;4.63;;
68803;SDS011;55787;52.678;13.314;2022-11-18T11:17:08;12.03;;;4.30;;
68803;SDS011;55787;52.678;13.314;2022-11-18T11:22:10;11.90;;;4.72;;
68803;SDS011;55787;52.678;13.314;2022-11-18T11:24:38;13.20;;;4.65;;
68803;SDS011;55787;52.678;13.314;2022-11-18T11:27:17;14.50;;;5.38;;
68803;SDS011;55787;52.678;13.314;2022-11-18T11:30:18;12.63;;;4.43;;
68803;SDS011;55787;52.678;13.314;2022-11-18T11:35:31;13.52;;;4.60;;
68803;SDS011;55787;52.678;13.314;2022-11-18T11:46:33;13.38;;;5.60;;
68803;SDS011;55787;52.678;13.314;2022-11-18T11:49:36;10.75;;;2.97;;
68803;SDS011;55787;52.678;13.314;2022-11-18T11:52:16;9.43;;;2.80;;
68803;SDS011;55787;52.678;13.314;2022-11-18T11:55:12;7.85;;;2.17;;
68803;SDS011;55787;52.678;13.314;2022-11-18T12:00:48;9.75;;;2.67;;
68803;SDS011;55787;52.678;13.314;2022-11-18T12:03:45;9.45;;;2.80;;
68803;SDS011;55787;52.678;13.314;2022-11-18T12:06:18;8.80;;;3.10;;
68803;SDS011;55787;52.678;13.314;2022-11-18T12:08:49;8.65;;;2.22;;
68803;SDS011;55787;52.678;13.314;2022-11-18T12:17:18;12.00;;;3.40;;
68803;SDS011;55787;52.678;13.314;2022-11-18T12:19:50;9.70;;;3.10;;
68803;SDS011;55787;52.678;13.314;2022-11-18T12:22:16;10.30;;;2.95;;
68803;SDS011;55787;52.678;13.314;2022-11-18T12:24:43;9.40;;;3.00;;
68803;SDS011;55787;52.678;13.314;2022-11-18T12:40:04;10.18;;;2.50;;
68803;SDS011;55787;52.678;13.314;2022-11-18T12:46:04;10.55;;;3.20;;
68803;SDS011;55787;52.678;13.314;2022-11-18T12:50:55;9.97;;;2.93;;
68803;SDS011;55787;52.678;13.314;2022-11-18T12:53:34;10.32;;;3.20;;
68803;SDS011;55787;52.678;13.314;2022-11-18T12:56:11;9.75;;;2.85;;
68803;SDS011;55787;52.678;13.314;2022-11-18T13:01:15;13.40;;;4.10;;
68803;SDS011;55787;52.678;13.314;2022-11-18T13:03:43;13.13;;;4.90;;
68803;SDS011;55787;52.678;13.314;2022-11-18T13:06:12;13.63;;;4.93;;
68803;SDS011;55787;52.678;13.314;2022-11-18T13:08:53;12.20;;;3.78;;
68803;SDS011;55787;52.678;13.314;2022-11-18T13:11:23;10.65;;;3.25;;
68803;SDS011;55787;52.678;13.314;2022-11-18T13:14:52;12.77;;;4.05;;
68803;SDS011;55787;52.678;13.314;2022-11-18T13:17:38;11.23;;;3.60;;
68803;SDS011;55787;52.678;13.314;2022-11-18T13:20:25;11.95;;;3.40;;
68803;SDS011;55787;52.678;13.314;2022-11-18T13:31:39;10.97;;;3.40;;
68803;SDS011;55787;52.678;13.314;2022-11-18T13:34:14;10.05;;;2.92;;
68803;SDS011;55787;52.678;13.314;2022-11-18T13:36:44;10.38;;;3.22;;
68803;SDS011;55787;52.678;13.314;2022-11-18T13:39:23;10.40;;;3.22;;
68803;SDS011;55787;52.678;13.314;2022-11-18T13:42:02;10.65;;;3.10;;
68803;SDS011;55787;52.678;13.314;2022-11-18T13:44:33;13.83;;;3.60;;
68803;SDS011;55787;52.678;13.314;2022-11-18T13:55:51;11.60;;;3.30;;
68803;SDS011;55787;52.678;13.314;2022-11-18T13:58:31;10.43;;;3.10;;
68803;SDS011;55787;52.678;13.314;2022-11-18T14:01:27;9.57;;;2.38;;
68803;SDS011;55787;52.678;13.314;2022-11-18T14:06:38;8.45;;;2.67;;
68803;SDS011;55787;52.678;13.314;2022-11-18T14:12:25;9.60;;;2.40;;
68803;SDS011;55787;52.678;13.314;2022-11-18T14:14:44;7.80;;;2.10;;
68803;SDS011;55787;52.678;13.314;2022-11-18T14:17:16;9.32;;;2.17;;
68803;SDS011;55787;52.678;13.314;2022-11-18T14:19:46;8.55;;;1.80;;
68803;SDS011;55787;52.678;13.314;2022-11-18T14:22:19;8.55;;;2.22;;
68803;SDS011;55787;52.678;13.314;2022-11-18T14:24:55;8.27;;;2.40;;
68803;SDS011;55787;52.678;13.314;2022-11-18T14:27:34;7.93;;;2.25;;
68803;SDS011;55787;52.678;13.314;2022-11-18T14:33:29;8.15;;;2.13;;
68803;SDS011;55787;52.678;13.314;2022-11-18T14:35:50;8.27;;;2.30;;
68803;SDS011;55787;52.678;13.314;2022-11-18T14:38:41;8.80;;;2.53;;
68803;SDS011;55787;52.678;13.314;2022-11-18T14:41:31;8.90;;;2.40;;
68803;SDS011;55787;52.678;13.314;2022-11-18T14:44:13;12.40;;;4.50;;
68803;SDS011;55787;52.678;13.314;2022-11-18T14:46:41;9.55;;;2.67;;
68803;SDS011;55787;52.678;13.314;2022-11-18T14:49:14;9.77;;;2.80;;
68803;SDS011;55787;52.678;13.314;2022-11-18T14:51:44;9.73;;;2.90;;
68803;SDS011;55787;52.678;13.314;2022-11-18T14:54:12;12.23;;;3.78;;
68803;SDS011;55787;52.678;13.314;2022-11-18T14:56:43;12.43;;;3.88;;
68803;SDS011;55787;52.678;13.314;2022-11-18T14:59:12;17.77;;;8.02;;
68803;SDS011;55787;52.678;13.314;2022-11-18T15:01:39;14.15;;;5.43;;
68803;SDS011;55787;52.678;13.314;2022-11-18T15:04:07;17.27;;;6.97;;
68803;SDS011;55787;52.678;13.314;2022-11-18T15:06:34;16.38;;;7.05;;
68803;SDS011;55787;52.678;13.314;2022-11-18T15:09:02;15.07;;;6.30;;
68803;SDS011;55787;52.678;13.314;2022-11-18T15:11:28;15.65;;;6.10;;
68803;SDS011;55787;52.678;13.314;2022-11-18T15:13:55;13.63;;;4.95;;
68803;SDS011;55787;52.678;13.314;2022-11-18T15:16:23;14.13;;;5.70;;
68803;SDS011;55787;52.678;13.314;2022-11-18T15:18:53;18.80;;;8.52;;
68803;SDS011;55787;52.678;13.314;2022-11-18T15:21:21;25.30;;;10.20;;
68803;SDS011;55787;52.678;13.314;2022-11-18T15:23:49;31.48;;;13.10;;
68803;SDS011;55787;52.678;13.314;2022-11-18T15:26:20;28.33;;;11.48;;
68803;SDS011;55787;52.678;13.314;2022-11-18T15:28:50;26.43;;;10.73;;
68803;SDS011;55787;52.678;13.314;2022-11-18T15:31:19;25.75;;;10.52;;
68803;SDS011;55787;52.678;13.314;2022-11-18T15:33:46;27.60;;;12.27;;
68803;SDS011;55787;52.678;13.314;2022-11-18T15:36:19;28.60;;;12.00;;
68803;SDS011;55787;52.678;13.314;2022-11-18T15:38:49;26.27;;;11.60;;
68803;SDS011;55787;52.678;13.314;2022-11-18T15:41:21;23.03;;;9.73;;
68803;SDS011;55787;52.678;13.314;2022-11-18T15:43:51;22.40;;;8.68;;
68803;SDS011;55787;52.678;13.314;2022-11-18T15:46:19;18.13;;;6.57;;
68803;SDS011;55787;52.678;13.314;2022-11-18T15:48:50;16.15;;;6.10;;
68803;SDS011;55787;52.678;13.314;2022-11-18T15:51:17;18.40;;;6.95;;
68803;SDS011;55787;52.678;13.314;2022-11-18T15:53:44;16.97;;;6.10;;
68803;SDS011;55787;52.678;13.314;2022-11-18T16:01:23;17.55;;;6.20;;
68803;SDS011;55787;52.678;13.314;2022-11-18T16:03:54;22.75;;;7.28;;
68803;SDS011;55787;52.678;13.314;2022-11-18T16:06:21;16.80;;;6.67;;
68803;SDS011;55787;52.678;13.314;2022-11-18T16:08:49;19.77;;;8.60;;
68803;SDS011;55787;52.678;13.314;2022-11-18T16:11:24;21.85;;;8.10;;
68803;SDS011;55787;52.678;13.314;2022-11-18T16:14:10;21.08;;;7.85;;
68803;SDS011;55787;52.678;13.314;2022-11-18T16:16:39;20.23;;;7.35;;
68803;SDS011;55787;52.678;13.314;2022-11-18T16:19:08;24.97;;;8.70;;
68803;SDS011;55787;52.678;13.314;2022-11-18T16:21:37;21.73;;;10.27;;
68803;SDS011;55787;52.678;13.314;2022-11-18T16:24:07;24.20;;;10.48;;
68803;SDS011;55787;52.678;13.314;2022-11-18T16:26:36;25.65;;;10.32;;
68803;SDS011;55787;52.678;13.314;2022-11-18T16:29:03;23.70;;;10.07;;
68803;SDS011;55787;52.678;13.314;2022-11-18T16:31:31;22.40;;;9.17;;
68803;SDS011;55787;52.678;13.314;2022-11-18T16:34:07;24.23;;;8.63;;
68803;SDS011;55787;52.678;13.314;2022-11-18T16:36:45;24.85;;;9.43;;
68803;SDS011;55787;52.678;13.314;2022-11-18T16:39:17;25.98;;;9.90;;
68803;SDS011;55787;52.678;13.314;2022-11-18T16:41:46;32.75;;;12.50;;
68803;SDS011;55787;52.678;13.314;2022-11-18T16:44:13;46.27;;;16.27;;
68803;SDS011;55787;52.678;13.314;2022-11-18T16:46:44;49.70;;;18.38;;
68803;SDS011;55787;52.678;13.314;2022-11-18T16:49:13;58.65;;;18.73;;
68803;SDS011;55787;52.678;13.314;2022-11-18T16:51:42;36.38;;;14.70;;
68803;SDS011;55787;52.678;13.314;2022-11-18T16:54:17;31.13;;;12.30;;
68803;SDS011;55787;52.678;13.314;2022-11-18T16:56:44;33.70;;;11.43;;
68803;SDS011;55787;52.678;13.314;2022-11-18T16:59:13;29.10;;;10.40;;
68803;SDS011;55787;52.678;13.314;2022-11-18T17:01:43;26.48;;;10.48;;
68803;SDS011;55787;52.678;13.314;2022-11-18T17:04:10;28.25;;;11.00;;
68803;SDS011;55787;52.678;13.314;2022-11-18T17:06:37;40.28;;;14.38;;